sensor_id;sensor_type;location;lat;lon;timestamp;temperature;humidity
16966;DHT22;8599;47.852;12.070;2022-12-18T00:02:00;-2.70;99.90
16966;DHT22;8599;47.852;12.070;2022-12-18T00:04:27;-2.70;99.90
16966;DHT22;8599;47.852;12.070;2022-12-18T00:06:54;-2.50;99.90
16966;DHT22;8599;47.852;12.070;2022-12-18T00:09:21;-2.50;99.90
16966;DHT22;8599;47.852;12.070;2022-12-18T00:11:48;-2.60;99.90
16966;DHT22;8599;47.852;12.070;2022-12-18T00:14:15;-2.60;99.90
16966;DHT22;8599;47.852;12.070;2022-12-18T00:16:43;-2.60;99.90
16966;DHT22;8599;47.852;12.070;2022-12-18T00:19:12;-2.50;99.90
16966;DHT22;8599;47.852;12.070;2022-12-18T00:21:40;-2.70;99.90
16966;DHT22;8599;47.852;12.070;2022-12-18T00:24:08;-2.80;99.90
16966;DHT22;8599;47.852;12.070;2022-12-18T00:26:36;-2.80;99.90
16966;DHT22;8599;47.852;12.070;2022-12-18T00:29:04;-2.90;99.90
16966;DHT22;8599;47.852;12.070;2022-12-18T00:31:32;-2.90;99.90
16966;DHT22;8599;47.852;12.070;2022-12-18T00:34:00;-2.80;99.90
16966;DHT22;8599;47.852;12.070;2022-12-18T00:36:30;-2.70;99.90
16966;DHT22;8599;47.852;12.070;2022-12-18T00:38:58;-2.70;99.90
16966;DHT22;8599;47.852;12.070;2022-12-18T00:41:25;-2.70;99.90
16966;DHT22;8599;47.852;12.070;2022-12-18T00:44:12;-2.70;99.90
16966;DHT22;8599;47.852;12.070;2022-12-18T00:46:39;-2.70;99.90
16966;DHT22;8599;47.852;12.070;2022-12-18T00:49:06;-2.70;99.90
16966;DHT22;8599;47.852;12.070;2022-12-18T00:51:34;-2.70;99.90
16966;DHT22;8599;47.852;12.070;2022-12-18T00:54:01;-2.70;99.90
16966;DHT22;8599;47.852;12.070;2022-12-18T00:56:28;-2.70;99.90
16966;DHT22;8599;47.852;12.070;2022-12-18T00:58:55;-2.70;99.90
16966;DHT22;8599;47.852;12.070;2022-12-18T01:01:22;-2.80;99.90
16966;DHT22;8599;47.852;12.070;2022-12-18T01:03:48;-2.70;99.90
16966;DHT22;8599;47.852;12.070;2022-12-18T01:06:17;-2.70;99.90
16966;DHT22;8599;47.852;12.070;2022-12-18T01:08:45;-2.70;99.90
16966;DHT22;8599;47.852;12.070;2022-12-18T01:11:13;-2.70;99.90
16966;DHT22;8599;47.852;12.070;2022-12-18T01:13:41;-2.70;99.90
16966;DHT22;8599;47.852;12.070;2022-12-18T01:16:10;-2.70;99.90
16966;DHT22;8599;47.852;12.070;2022-12-18T01:18:37;-2.80;99.90
16966;DHT22;8599;47.852;12.070;2022-12-18T01:21:06;-2.90;99.90
16966;DHT22;8599;47.852;12.070;2022-12-18T01:23:35;-2.90;99.90
16966;DHT22;8599;47.852;12.070;2022-12-18T01:26:07;-2.90;99.90
16966;DHT22;8599;47.852;12.070;2022-12-18T01:28:34;-2.90;99.90
16966;DHT22;8599;47.852;12.070;2022-12-18T01:31:21;-2.90;99.90
16966;DHT22;8599;47.852;12.070;2022-12-18T01:33:48;-2.90;99.90
16966;DHT22;8599;47.852;12.070;2022-12-18T01:36:17;-2.90;99.90
16966;DHT22;8599;47.852;12.070;2022-12-18T01:38:44;-2.80;99.90
16966;DHT22;8599;47.852;12.070;2022-12-18T01:41:12;-2.70;99.90
16966;DHT22;8599;47.852;12.070;2022-12-18T01:43:49;-2.70;99.90
16966;DHT22;8599;47.852;12.070;2022-12-18T01:46:17;-2.70;99.90
16966;DHT22;8599;47.852;12.070;2022-12-18T01:48:47;-2.80;99.90
16966;DHT22;8599;47.852;12.070;2022-12-18T01:51:15;-2.80;99.90
16966;DHT22;8599;47.852;12.070;2022-12-18T01:53:44;-2.70;99.90
16966;DHT22;8599;47.852;12.070;2022-12-18T01:56:15;-2.80;99.90
16966;DHT22;8599;47.852;12.070;2022-12-18T01:58:48;-2.90;99.90
16966;DHT22;8599;47.852;12.070;2022-12-18T02:01:17;-2.90;99.90
16966;DHT22;8599;47.852;12.070;2022-12-18T02:03:45;-2.80;99.90
16966;DHT22;8599;47.852;12.070;2022-12-18T02:06:15;-2.90;99.90
16966;DHT22;8599;47.852;12.070;2022-12-18T02:08:53;-2.80;99.90
16966;DHT22;8599;47.852;12.070;2022-12-18T02:11:37;-2.70;99.90
16966;DHT22;8599;47.852;12.070;2022-12-18T02:14:17;-2.70;99.90
16966;DHT22;8599;47.852;12.070;2022-12-18T02:16:49;-2.70;99.90
16966;DHT22;8599;47.852;12.070;2022-12-18T02:19:32;-2.70;99.90
16966;DHT22;8599;47.852;12.070;2022-12-18T02:22:12;-2.70;99.90
16966;DHT22;8599;47.852;12.070;2022-12-18T02:24:45;-2.70;99.90
16966;DHT22;8599;47.852;12.070;2022-12-18T02:27:19;-2.60;99.90
16966;DHT22;8599;47.852;12.070;2022-12-18T02:29:49;-2.70;99.90
16966;DHT22;8599;47.852;12.070;2022-12-18T02:32:21;-2.60;99.90
16966;DHT22;8599;47.852;12.070;2022-12-18T02:34:51;-2.60;99.90
16966;DHT22;8599;47.852;12.070;2022-12-18T02:37:21;-2.60;99.90
16966;DHT22;8599;47.852;12.070;2022-12-18T02:39:49;-2.70;99.90
16966;DHT22;8599;47.852;12.070;2022-12-18T02:42:20;-2.70;99.90
16966;DHT22;8599;47.852;12.070;2022-12-18T02:44:50;-2.70;99.90
16966;DHT22;8599;47.852;12.070;2022-12-18T02:47:18;-2.70;99.90
16966;DHT22;8599;47.852;12.070;2022-12-18T02:49:55;-2.70;99.90
16966;DHT22;8599;47.852;12.070;2022-12-18T02:52:30;-2.70;99.90
16966;DHT22;8599;47.852;12.070;2022-12-18T02:55:07;-2.80;99.90
16966;DHT22;8599;47.852;12.070;2022-12-18T02:57:44;-2.80;99.90
16966;DHT22;8599;47.852;12.070;2022-12-18T03:00:15;-2.90;99.90
16966;DHT22;8599;47.852;12.070;2022-12-18T03:02:46;-3.00;99.90
16966;DHT22;8599;47.852;12.070;2022-12-18T03:05:18;-3.10;99.90
16966;DHT22;8599;47.852;12.070;2022-12-18T03:07:49;-3.10;99.90
16966;DHT22;8599;47.852;12.070;2022-12-18T03:10:21;-3.10;99.90
16966;DHT22;8599;47.852;12.070;2022-12-18T03:12:54;-3.10;99.90
16966;DHT22;8599;47.852;12.070;2022-12-18T03:15:25;-3.10;99.90
16966;DHT22;8599;47.852;12.070;2022-12-18T03:17:56;-3.20;99.90
16966;DHT22;8599;47.852;12.070;2022-12-18T03:20:25;-3.40;99.90
16966;DHT22;8599;47.852;12.070;2022-12-18T03:23:01;-3.30;99.90
16966;DHT22;8599;47.852;12.070;2022-12-18T03:25:30;-3.20;99.90
16966;DHT22;8599;47.852;12.070;2022-12-18T03:28:00;-3.20;99.90
16966;DHT22;8599;47.852;12.070;2022-12-18T03:30:29;-3.20;99.90
16966;DHT22;8599;47.852;12.070;2022-12-18T03:33:05;-3.20;99.90
16966;DHT22;8599;47.852;12.070;2022-12-18T03:35:37;-3.20;99.90
16966;DHT22;8599;47.852;12.070;2022-12-18T03:38:05;-3.20;99.90
16966;DHT22;8599;47.852;12.070;2022-12-18T03:40:38;-3.20;99.90
16966;DHT22;8599;47.852;12.070;2022-12-18T03:43:11;-3.20;99.90
16966;DHT22;8599;47.852;12.070;2022-12-18T03:45:48;-3.20;99.90
16966;DHT22;8599;47.852;12.070;2022-12-18T03:48:19;-3.30;99.90
16966;DHT22;8599;47.852;12.070;2022-12-18T03:50:51;-3.30;99.90
16966;DHT22;8599;47.852;12.070;2022-12-18T03:53:26;-3.30;99.90
16966;DHT22;8599;47.852;12.070;2022-12-18T03:55:55;-3.40;99.90
16966;DHT22;8599;47.852;12.070;2022-12-18T03:58:26;-3.30;99.90
16966;DHT22;8599;47.852;12.070;2022-12-18T04:00:56;-3.30;99.90
16966;DHT22;8599;47.852;12.070;2022-12-18T04:03:23;-3.30;99.90
16966;DHT22;8599;47.852;12.070;2022-12-18T04:05:51;-3.20;99.90
16966;DHT22;8599;47.852;12.070;2022-12-18T04:08:19;-3.30;99.90
16966;DHT22;8599;47.852;12.070;2022-12-18T04:10:47;-3.30;99.90
16966;DHT22;8599;47.852;12.070;2022-12-18T04:13:22;-3.30;99.90
16966;DHT22;8599;47.852;12.070;2022-12-18T04:15:50;-3.40;99.90
16966;DHT22;8599;47.852;12.070;2022-12-18T04:18:17;-3.50;99.90
16966;DHT22;8599;47.852;12.070;2022-12-18T04:20:44;-3.60;99.90
16966;DHT22;8599;47.852;12.070;2022-12-18T04:23:11;-3.60;99.90
16966;DHT22;8599;47.852;12.070;2022-12-18T04:25:37;-3.60;99.90
16966;DHT22;8599;47.852;12.070;2022-12-18T04:28:04;-3.60;99.90
16966;DHT22;8599;47.852;12.070;2022-12-18T04:30:31;-3.60;99.90
16966;DHT22;8599;47.852;12.070;2022-12-18T04:32:59;-3.60;99.90
16966;DHT22;8599;47.852;12.070;2022-12-18T04:35:26;-3.60;99.90
16966;DHT22;8599;47.852;12.070;2022-12-18T04:37:53;-3.60;99.90
16966;DHT22;8599;47.852;12.070;2022-12-18T04:40:20;-3.60;99.90
16966;DHT22;8599;47.852;12.070;2022-12-18T04:42:47;-3.80;99.90
16966;DHT22;8599;47.852;12.070;2022-12-18T04:45:14;-3.80;99.90
16966;DHT22;8599;47.852;12.070;2022-12-18T04:47:40;-3.90;99.90
16966;DHT22;8599;47.852;12.070;2022-12-18T04:50:09;-3.80;99.90
16966;DHT22;8599;47.852;12.070;2022-12-18T04:52:36;-3.60;99.90
16966;DHT22;8599;47.852;12.070;2022-12-18T04:55:03;-3.60;99.90
16966;DHT22;8599;47.852;12.070;2022-12-18T04:57:30;-3.60;99.90
16966;DHT22;8599;47.852;12.070;2022-12-18T04:59:56;-3.50;99.90
16966;DHT22;8599;47.852;12.070;2022-12-18T05:02:23;-3.50;99.90
16966;DHT22;8599;47.852;12.070;2022-12-18T05:04:50;-3.60;99.90
16966;DHT22;8599;47.852;12.070;2022-12-18T05:07:18;-3.50;99.90
16966;DHT22;8599;47.852;12.070;2022-12-18T05:09:45;-3.50;99.90
16966;DHT22;8599;47.852;12.070;2022-12-18T05:12:11;-3.50;99.90
16966;DHT22;8599;47.852;12.070;2022-12-18T05:14:38;-3.50;99.90
16966;DHT22;8599;47.852;12.070;2022-12-18T05:17:05;-3.50;99.90
16966;DHT22;8599;47.852;12.070;2022-12-18T05:19:32;-3.40;99.90
16966;DHT22;8599;47.852;12.070;2022-12-18T05:21:59;-3.40;99.90
16966;DHT22;8599;47.852;12.070;2022-12-18T05:24:28;-3.40;99.90
16966;DHT22;8599;47.852;12.070;2022-12-18T05:26:55;-3.30;99.90
16966;DHT22;8599;47.852;12.070;2022-12-18T05:29:21;-3.20;99.90
16966;DHT22;8599;47.852;12.070;2022-12-18T05:31:48;-3.30;99.90
16966;DHT22;8599;47.852;12.070;2022-12-18T05:34:15;-3.40;99.90
16966;DHT22;8599;47.852;12.070;2022-12-18T05:36:42;-3.40;99.90
16966;DHT22;8599;47.852;12.070;2022-12-18T05:39:09;-3.60;99.90
16966;DHT22;8599;47.852;12.070;2022-12-18T05:41:37;-3.50;99.90
16966;DHT22;8599;47.852;12.070;2022-12-18T05:44:04;-3.50;99.90
16966;DHT22;8599;47.852;12.070;2022-12-18T05:46:31;-3.60;99.90
16966;DHT22;8599;47.852;12.070;2022-12-18T05:48:59;-3.60;99.90
16966;DHT22;8599;47.852;12.070;2022-12-18T05:51:26;-3.60;99.90
16966;DHT22;8599;47.852;12.070;2022-12-18T05:53:53;-3.60;99.90
16966;DHT22;8599;47.852;12.070;2022-12-18T05:56:21;-3.60;99.90
16966;DHT22;8599;47.852;12.070;2022-12-18T05:58:51;-3.60;99.90
16966;DHT22;8599;47.852;12.070;2022-12-18T06:01:20;-3.70;99.90
16966;DHT22;8599;47.852;12.070;2022-12-18T06:03:47;-3.70;99.90
16966;DHT22;8599;47.852;12.070;2022-12-18T06:06:16;-3.60;99.90
16966;DHT22;8599;47.852;12.070;2022-12-18T06:08:44;-3.60;99.90
16966;DHT22;8599;47.852;12.070;2022-12-18T06:11:11;-3.60;99.90
16966;DHT22;8599;47.852;12.070;2022-12-18T06:13:38;-3.60;99.90
16966;DHT22;8599;47.852;12.070;2022-12-18T06:16:07;-3.70;99.90
16966;DHT22;8599;47.852;12.070;2022-12-18T06:18:37;-3.80;99.90
16966;DHT22;8599;47.852;12.070;2022-12-18T06:21:04;-3.70;99.90
16966;DHT22;8599;47.852;12.070;2022-12-18T06:23:31;-3.70;99.90
16966;DHT22;8599;47.852;12.070;2022-12-18T06:25:58;-3.60;99.90
16966;DHT22;8599;47.852;12.070;2022-12-18T06:28:24;-3.60;99.90
16966;DHT22;8599;47.852;12.070;2022-12-18T06:30:51;-3.70;99.90
16966;DHT22;8599;47.852;12.070;2022-12-18T06:33:19;-3.80;99.90
16966;DHT22;8599;47.852;12.070;2022-12-18T06:35:46;-3.80;99.90
16966;DHT22;8599;47.852;12.070;2022-12-18T06:38:13;-3.90;99.90
16966;DHT22;8599;47.852;12.070;2022-12-18T06:40:40;-4.00;99.90
16966;DHT22;8599;47.852;12.070;2022-12-18T06:43:07;-4.20;99.90
16966;DHT22;8599;47.852;12.070;2022-12-18T06:45:34;-4.20;99.90
16966;DHT22;8599;47.852;12.070;2022-12-18T06:48:01;-4.30;99.90
16966;DHT22;8599;47.852;12.070;2022-12-18T06:50:29;-4.20;99.90
16966;DHT22;8599;47.852;12.070;2022-12-18T06:52:56;-4.20;99.90
16966;DHT22;8599;47.852;12.070;2022-12-18T06:55:22;-4.20;99.90
16966;DHT22;8599;47.852;12.070;2022-12-18T06:57:49;-4.30;99.90
16966;DHT22;8599;47.852;12.070;2022-12-18T07:00:16;-4.20;99.90
16966;DHT22;8599;47.852;12.070;2022-12-18T07:02:43;-4.20;99.90
16966;DHT22;8599;47.852;12.070;2022-12-18T07:05:10;-4.30;99.90
16966;DHT22;8599;47.852;12.070;2022-12-18T07:07:38;-4.30;99.90
16966;DHT22;8599;47.852;12.070;2022-12-18T07:10:05;-4.30;99.90
16966;DHT22;8599;47.852;12.070;2022-12-18T07:12:32;-4.30;99.90
16966;DHT22;8599;47.852;12.070;2022-12-18T07:14:59;-4.30;99.90
16966;DHT22;8599;47.852;12.070;2022-12-18T07:17:26;-4.30;99.90
16966;DHT22;8599;47.852;12.070;2022-12-18T07:19:53;-4.40;99.90
16966;DHT22;8599;47.852;12.070;2022-12-18T07:22:19;-4.60;99.90
16966;DHT22;8599;47.852;12.070;2022-12-18T07:24:50;-4.50;99.90
16966;DHT22;8599;47.852;12.070;2022-12-18T07:27:17;-4.50;99.90
16966;DHT22;8599;47.852;12.070;2022-12-18T07:29:44;-4.50;99.90
16966;DHT22;8599;47.852;12.070;2022-12-18T07:32:10;-4.60;99.90
16966;DHT22;8599;47.852;12.070;2022-12-18T07:34:37;-4.60;99.90
16966;DHT22;8599;47.852;12.070;2022-12-18T07:37:04;-4.60;99.90
16966;DHT22;8599;47.852;12.070;2022-12-18T07:39:31;-4.50;99.90
16966;DHT22;8599;47.852;12.070;2022-12-18T07:41:59;-4.50;99.90
16966;DHT22;8599;47.852;12.070;2022-12-18T07:44:43;-4.50;99.90
16966;DHT22;8599;47.852;12.070;2022-12-18T07:47:10;-4.40;99.90
16966;DHT22;8599;47.852;12.070;2022-12-18T07:49:37;-4.50;99.90
16966;DHT22;8599;47.852;12.070;2022-12-18T07:52:04;-4.50;99.90
16966;DHT22;8599;47.852;12.070;2022-12-18T07:54:31;-4.50;99.90
16966;DHT22;8599;47.852;12.070;2022-12-18T07:56:59;-4.40;99.90
16966;DHT22;8599;47.852;12.070;2022-12-18T07:59:26;-4.50;99.90
16966;DHT22;8599;47.852;12.070;2022-12-18T08:01:53;-4.50;99.90
16966;DHT22;8599;47.852;12.070;2022-12-18T08:04:20;-4.50;99.90
16966;DHT22;8599;47.852;12.070;2022-12-18T08:06:46;-4.50;99.90
16966;DHT22;8599;47.852;12.070;2022-12-18T08:09:13;-4.50;99.90
16966;DHT22;8599;47.852;12.070;2022-12-18T08:11:40;-4.40;99.90
16966;DHT22;8599;47.852;12.070;2022-12-18T08:14:08;-4.20;99.90
16966;DHT22;8599;47.852;12.070;2022-12-18T08:16:35;-4.20;99.90
16966;DHT22;8599;47.852;12.070;2022-12-18T08:19:03;-4.40;99.90
16966;DHT22;8599;47.852;12.070;2022-12-18T08:21:30;-4.50;99.90
16966;DHT22;8599;47.852;12.070;2022-12-18T08:23:59;-4.60;99.90
16966;DHT22;8599;47.852;12.070;2022-12-18T08:26:28;-4.50;99.90
16966;DHT22;8599;47.852;12.070;2022-12-18T08:28:56;-4.50;99.90
16966;DHT22;8599;47.852;12.070;2022-12-18T08:31:25;-4.60;99.90
16966;DHT22;8599;47.852;12.070;2022-12-18T08:33:53;-4.60;99.90
16966;DHT22;8599;47.852;12.070;2022-12-18T08:36:20;-4.50;99.90
16966;DHT22;8599;47.852;12.070;2022-12-18T08:38:48;-4.40;99.90
16966;DHT22;8599;47.852;12.070;2022-12-18T08:41:16;-4.40;99.90
16966;DHT22;8599;47.852;12.070;2022-12-18T08:43:43;-4.30;99.90
16966;DHT22;8599;47.852;12.070;2022-12-18T08:46:35;-4.30;99.90
16966;DHT22;8599;47.852;12.070;2022-12-18T08:49:02;-4.30;99.90
16966;DHT22;8599;47.852;12.070;2022-12-18T08:51:28;-4.10;99.90
16966;DHT22;8599;47.852;12.070;2022-12-18T08:53:55;-4.10;99.90
16966;DHT22;8599;47.852;12.070;2022-12-18T08:56:22;-4.10;99.90
16966;DHT22;8599;47.852;12.070;2022-12-18T08:58:51;-3.90;99.90
16966;DHT22;8599;47.852;12.070;2022-12-18T09:01:18;-3.90;99.90
16966;DHT22;8599;47.852;12.070;2022-12-18T09:03:50;-3.80;99.90
16966;DHT22;8599;47.852;12.070;2022-12-18T09:06:18;-3.80;99.90
16966;DHT22;8599;47.852;12.070;2022-12-18T09:08:46;-3.90;99.90
16966;DHT22;8599;47.852;12.070;2022-12-18T09:11:14;-3.90;99.90
16966;DHT22;8599;47.852;12.070;2022-12-18T09:13:41;-3.90;99.90
16966;DHT22;8599;47.852;12.070;2022-12-18T09:16:08;-3.80;99.90
16966;DHT22;8599;47.852;12.070;2022-12-18T09:18:35;-3.90;99.90
16966;DHT22;8599;47.852;12.070;2022-12-18T09:21:09;-4.00;99.90
16966;DHT22;8599;47.852;12.070;2022-12-18T09:23:36;-3.90;99.90
16966;DHT22;8599;47.852;12.070;2022-12-18T09:26:04;-3.90;99.90
16966;DHT22;8599;47.852;12.070;2022-12-18T09:28:30;-3.80;99.90
16966;DHT22;8599;47.852;12.070;2022-12-18T09:30:57;-3.80;99.90
16966;DHT22;8599;47.852;12.070;2022-12-18T09:33:24;-3.90;99.90
16966;DHT22;8599;47.852;12.070;2022-12-18T09:35:51;-3.80;99.90
16966;DHT22;8599;47.852;12.070;2022-12-18T09:38:19;-3.80;99.90
16966;DHT22;8599;47.852;12.070;2022-12-18T09:40:50;-3.80;99.90
16966;DHT22;8599;47.852;12.070;2022-12-18T09:43:20;-3.60;99.90
16966;DHT22;8599;47.852;12.070;2022-12-18T09:45:52;-3.80;99.90
16966;DHT22;8599;47.852;12.070;2022-12-18T09:48:23;-3.80;99.90
16966;DHT22;8599;47.852;12.070;2022-12-18T09:50:54;-4.00;99.90
16966;DHT22;8599;47.852;12.070;2022-12-18T09:53:26;-3.80;99.90
16966;DHT22;8599;47.852;12.070;2022-12-18T09:55:54;-4.00;99.90
16966;DHT22;8599;47.852;12.070;2022-12-18T09:58:28;-3.90;99.90
16966;DHT22;8599;47.852;12.070;2022-12-18T10:00:57;-3.70;99.90
16966;DHT22;8599;47.852;12.070;2022-12-18T10:03:24;-3.60;99.90
16966;DHT22;8599;47.852;12.070;2022-12-18T10:05:59;-3.50;99.90
16966;DHT22;8599;47.852;12.070;2022-12-18T10:08:36;-3.40;99.90
16966;DHT22;8599;47.852;12.070;2022-12-18T10:11:21;-3.40;99.90
16966;DHT22;8599;47.852;12.070;2022-12-18T10:13:54;-3.40;99.90
16966;DHT22;8599;47.852;12.070;2022-12-18T10:16:29;-3.40;99.90
16966;DHT22;8599;47.852;12.070;2022-12-18T10:19:09;-3.40;99.90
16966;DHT22;8599;47.852;12.070;2022-12-18T10:21:42;-3.30;99.90
16966;DHT22;8599;47.852;12.070;2022-12-18T10:24:19;-3.40;99.90
16966;DHT22;8599;47.852;12.070;2022-12-18T10:26:48;-3.40;99.90
16966;DHT22;8599;47.852;12.070;2022-12-18T10:29:16;-3.40;99.90
16966;DHT22;8599;47.852;12.070;2022-12-18T10:31:43;-3.40;99.90
16966;DHT22;8599;47.852;12.070;2022-12-18T10:34:10;-3.40;99.90
16966;DHT22;8599;47.852;12.070;2022-12-18T10:36:38;-3.30;99.90
16966;DHT22;8599;47.852;12.070;2022-12-18T10:39:20;-3.20;99.90
16966;DHT22;8599;47.852;12.070;2022-12-18T10:41:50;-3.20;99.90
16966;DHT22;8599;47.852;12.070;2022-12-18T10:44:19;-3.30;99.90
16966;DHT22;8599;47.852;12.070;2022-12-18T10:46:49;-3.40;99.90
16966;DHT22;8599;47.852;12.070;2022-12-18T10:49:22;-3.40;99.90
16966;DHT22;8599;47.852;12.070;2022-12-18T10:51:50;-3.40;99.90
16966;DHT22;8599;47.852;12.070;2022-12-18T10:54:21;-3.50;99.90
16966;DHT22;8599;47.852;12.070;2022-12-18T10:56:49;-3.50;99.90
16966;DHT22;8599;47.852;12.070;2022-12-18T10:59:17;-3.50;99.90
16966;DHT22;8599;47.852;12.070;2022-12-18T11:01:52;-3.50;99.90
16966;DHT22;8599;47.852;12.070;2022-12-18T11:04:21;-3.50;99.90
16966;DHT22;8599;47.852;12.070;2022-12-18T11:06:57;-3.40;99.90
16966;DHT22;8599;47.852;12.070;2022-12-18T11:09:27;-3.60;99.90
16966;DHT22;8599;47.852;12.070;2022-12-18T11:11:56;-3.40;99.90
16966;DHT22;8599;47.852;12.070;2022-12-18T11:14:26;-3.40;99.90
16966;DHT22;8599;47.852;12.070;2022-12-18T11:16:54;-3.40;99.90
16966;DHT22;8599;47.852;12.070;2022-12-18T11:19:29;-3.40;99.90
16966;DHT22;8599;47.852;12.070;2022-12-18T11:21:58;-3.30;99.90
16966;DHT22;8599;47.852;12.070;2022-12-18T11:24:30;-3.30;99.90
16966;DHT22;8599;47.852;12.070;2022-12-18T11:27:00;-3.20;99.90
16966;DHT22;8599;47.852;12.070;2022-12-18T11:29:33;-3.10;99.90
16966;DHT22;8599;47.852;12.070;2022-12-18T11:32:27;-2.90;99.90
16966;DHT22;8599;47.852;12.070;2022-12-18T11:35:01;-2.90;99.90
16966;DHT22;8599;47.852;12.070;2022-12-18T11:37:29;-3.00;99.90
16966;DHT22;8599;47.852;12.070;2022-12-18T11:40:02;-3.10;99.90
16966;DHT22;8599;47.852;12.070;2022-12-18T11:42:37;-3.20;99.90
16966;DHT22;8599;47.852;12.070;2022-12-18T11:45:23;-3.30;99.90
16966;DHT22;8599;47.852;12.070;2022-12-18T11:47:57;-3.20;99.90
16966;DHT22;8599;47.852;12.070;2022-12-18T11:50:28;-3.20;99.90
16966;DHT22;8599;47.852;12.070;2022-12-18T11:52:56;-3.30;99.90
16966;DHT22;8599;47.852;12.070;2022-12-18T11:55:31;-3.40;99.90
16966;DHT22;8599;47.852;12.070;2022-12-18T11:58:10;-3.20;99.90
16966;DHT22;8599;47.852;12.070;2022-12-18T12:00:45;-3.30;99.90
16966;DHT22;8599;47.852;12.070;2022-12-18T12:03:29;-3.20;99.90
16966;DHT22;8599;47.852;12.070;2022-12-18T12:06:10;-3.30;99.90
16966;DHT22;8599;47.852;12.070;2022-12-18T12:08:48;-3.10;99.90
16966;DHT22;8599;47.852;12.070;2022-12-18T12:11:28;-3.30;99.90
16966;DHT22;8599;47.852;12.070;2022-12-18T12:14:09;-3.20;99.90
16966;DHT22;8599;47.852;12.070;2022-12-18T12:16:42;-3.20;99.90
16966;DHT22;8599;47.852;12.070;2022-12-18T12:19:21;-3.10;99.90
16966;DHT22;8599;47.852;12.070;2022-12-18T12:21:57;-3.20;99.90
16966;DHT22;8599;47.852;12.070;2022-12-18T12:24:32;-3.30;99.90
16966;DHT22;8599;47.852;12.070;2022-12-18T12:27:08;-3.40;99.90
16966;DHT22;8599;47.852;12.070;2022-12-18T12:29:47;-3.30;99.90
16966;DHT22;8599;47.852;12.070;2022-12-18T12:32:26;-3.30;99.90
16966;DHT22;8599;47.852;12.070;2022-12-18T12:35:05;-3.30;99.90
16966;DHT22;8599;47.852;12.070;2022-12-18T12:37:39;-3.30;99.90
16966;DHT22;8599;47.852;12.070;2022-12-18T12:40:12;-3.40;99.90
16966;DHT22;8599;47.852;12.070;2022-12-18T12:42:46;-3.50;99.90
16966;DHT22;8599;47.852;12.070;2022-12-18T12:45:36;-3.40;99.90
16966;DHT22;8599;47.852;12.070;2022-12-18T12:48:05;-3.20;99.90
16966;DHT22;8599;47.852;12.070;2022-12-18T12:50:34;-3.40;99.90
16966;DHT22;8599;47.852;12.070;2022-12-18T12:53:06;-3.50;99.90
16966;DHT22;8599;47.852;12.070;2022-12-18T12:55:35;-3.40;99.90
16966;DHT22;8599;47.852;12.070;2022-12-18T12:58:10;-3.30;99.90
16966;DHT22;8599;47.852;12.070;2022-12-18T13:00:44;-3.40;99.90
16966;DHT22;8599;47.852;12.070;2022-12-18T13:03:27;-3.30;99.90
16966;DHT22;8599;47.852;12.070;2022-12-18T13:05:59;-3.20;99.90
16966;DHT22;8599;47.852;12.070;2022-12-18T13:08:28;-3.10;99.90
16966;DHT22;8599;47.852;12.070;2022-12-18T13:10:55;-3.20;99.90
16966;DHT22;8599;47.852;12.070;2022-12-18T13:13:54;-3.10;99.90
16966;DHT22;8599;47.852;12.070;2022-12-18T13:16:21;-3.10;99.90
16966;DHT22;8599;47.852;12.070;2022-12-18T13:18:49;-3.20;99.90
16966;DHT22;8599;47.852;12.070;2022-12-18T13:21:21;-3.00;99.90
16966;DHT22;8599;47.852;12.070;2022-12-18T13:23:50;-3.10;99.90
16966;DHT22;8599;47.852;12.070;2022-12-18T13:26:32;-3.00;99.90
16966;DHT22;8599;47.852;12.070;2022-12-18T13:29:02;-3.00;99.90
16966;DHT22;8599;47.852;12.070;2022-12-18T13:31:59;-3.00;99.90
16966;DHT22;8599;47.852;12.070;2022-12-18T13:34:28;-2.80;99.90
16966;DHT22;8599;47.852;12.070;2022-12-18T13:36:57;-2.90;99.90
16966;DHT22;8599;47.852;12.070;2022-12-18T13:39:44;-2.90;99.90
16966;DHT22;8599;47.852;12.070;2022-12-18T13:42:39;-2.90;99.90
16966;DHT22;8599;47.852;12.070;2022-12-18T13:45:44;-2.90;99.90
16966;DHT22;8599;47.852;12.070;2022-12-18T13:48:17;-3.00;99.90
16966;DHT22;8599;47.852;12.070;2022-12-18T13:50:53;-3.10;99.90
16966;DHT22;8599;47.852;12.070;2022-12-18T13:53:24;-3.10;99.90
16966;DHT22;8599;47.852;12.070;2022-12-18T13:55:51;-3.00;99.90
16966;DHT22;8599;47.852;12.070;2022-12-18T13:58:18;-2.90;99.90
16966;DHT22;8599;47.852;12.070;2022-12-18T14:00:46;-2.90;99.90
16966;DHT22;8599;47.852;12.070;2022-12-18T14:03:21;-3.10;99.90
16966;DHT22;8599;47.852;12.070;2022-12-18T14:05:54;-3.20;99.90
16966;DHT22;8599;47.852;12.070;2022-12-18T14:08:27;-3.20;99.90
16966;DHT22;8599;47.852;12.070;2022-12-18T14:10:56;-3.10;99.90
16966;DHT22;8599;47.852;12.070;2022-12-18T14:13:26;-3.10;99.90
16966;DHT22;8599;47.852;12.070;2022-12-18T14:15:56;-3.20;99.90
16966;DHT22;8599;47.852;12.070;2022-12-18T14:18:25;-3.20;99.90
16966;DHT22;8599;47.852;12.070;2022-12-18T14:20:55;-3.30;99.90
16966;DHT22;8599;47.852;12.070;2022-12-18T14:23:33;-3.30;99.90
16966;DHT22;8599;47.852;12.070;2022-12-18T14:26:02;-3.20;99.90
16966;DHT22;8599;47.852;12.070;2022-12-18T14:28:30;-3.30;99.90
16966;DHT22;8599;47.852;12.070;2022-12-18T14:30:59;-3.30;99.90
16966;DHT22;8599;47.852;12.070;2022-12-18T14:33:27;-3.30;99.90
16966;DHT22;8599;47.852;12.070;2022-12-18T14:35:56;-3.40;99.90
16966;DHT22;8599;47.852;12.070;2022-12-18T14:38:26;-3.50;99.90
16966;DHT22;8599;47.852;12.070;2022-12-18T14:41:00;-3.40;99.90
16966;DHT22;8599;47.852;12.070;2022-12-18T14:43:29;-3.50;99.90
16966;DHT22;8599;47.852;12.070;2022-12-18T14:45:56;-3.50;99.90
16966;DHT22;8599;47.852;12.070;2022-12-18T14:48:35;-3.40;99.90
16966;DHT22;8599;47.852;12.070;2022-12-18T14:51:04;-3.40;99.90
16966;DHT22;8599;47.852;12.070;2022-12-18T14:53:37;-3.30;99.90
16966;DHT22;8599;47.852;12.070;2022-12-18T14:56:17;-3.30;99.90
16966;DHT22;8599;47.852;12.070;2022-12-18T14:58:46;-3.30;99.90
16966;DHT22;8599;47.852;12.070;2022-12-18T15:01:19;-3.20;99.90
16966;DHT22;8599;47.852;12.070;2022-12-18T15:03:47;-3.20;99.90
16966;DHT22;8599;47.852;12.070;2022-12-18T15:06:21;-3.20;99.90
16966;DHT22;8599;47.852;12.070;2022-12-18T15:08:50;-3.10;99.90
16966;DHT22;8599;47.852;12.070;2022-12-18T15:11:26;-3.00;99.90
16966;DHT22;8599;47.852;12.070;2022-12-18T15:13:53;-3.00;99.90
16966;DHT22;8599;47.852;12.070;2022-12-18T15:16:20;-3.20;99.90
16966;DHT22;8599;47.852;12.070;2022-12-18T15:18:48;-3.20;99.90
16966;DHT22;8599;47.852;12.070;2022-12-18T15:21:18;-3.20;99.90
16966;DHT22;8599;47.852;12.070;2022-12-18T15:23:48;-3.20;99.90
16966;DHT22;8599;47.852;12.070;2022-12-18T15:26:17;-3.30;99.90
16966;DHT22;8599;47.852;12.070;2022-12-18T15:28:47;-3.30;99.90
16966;DHT22;8599;47.852;12.070;2022-12-18T15:31:23;-3.30;99.90
16966;DHT22;8599;47.852;12.070;2022-12-18T15:34:11;-3.40;99.90
16966;DHT22;8599;47.852;12.070;2022-12-18T15:36:39;-3.30;99.90
16966;DHT22;8599;47.852;12.070;2022-12-18T15:39:06;-3.30;99.90
16966;DHT22;8599;47.852;12.070;2022-12-18T15:41:34;-3.20;99.90
16966;DHT22;8599;47.852;12.070;2022-12-18T15:44:22;-3.10;99.90
16966;DHT22;8599;47.852;12.070;2022-12-18T15:46:48;-3.10;99.90
16966;DHT22;8599;47.852;12.070;2022-12-18T15:49:16;-3.10;99.90
16966;DHT22;8599;47.852;12.070;2022-12-18T15:51:43;-3.00;99.90